createdAt,value
2022-12-24T00:04:32.438Z,14.70
2022-12-24T00:09:37.080Z,12.50
2022-12-24T00:14:39.634Z,14.43
2022-12-24T00:19:43.336Z,15.02
2022-12-24T00:24:45.797Z,13.38
2022-12-24T00:29:48.610Z,13.97
2022-12-24T00:34:51.056Z,13.27
2022-12-24T00:39:53.518Z,17.70
2022-12-24T00:44:56.010Z,10.90
2022-12-24T00:49:58.423Z,14.02
2022-12-24T00:55:00.887Z,12.30
2022-12-24T01:00:03.837Z,9.48
2022-12-24T01:05:12.644Z,9.53
2022-12-24T01:10:19.004Z,5.70
2022-12-24T01:15:21.555Z,5.53
2022-12-24T01:20:24.378Z,7.63
2022-12-24T01:25:26.865Z,10.07
2022-12-24T01:30:29.671Z,7.77
2022-12-24T01:35:32.038Z,9.40
2022-12-24T01:40:53.261Z,7.72
2022-12-24T01:46:02.316Z,7.43
2022-12-24T01:51:26.462Z,6.35
2022-12-24T01:56:31.089Z,6.90
2022-12-24T02:01:33.905Z,6.43
2022-12-24T02:06:36.453Z,7.75
2022-12-24T02:11:41.011Z,8.20
2022-12-24T02:16:52.353Z,7.30
2022-12-24T02:22:13.377Z,12.30
2022-12-24T02:27:41.397Z,8.20
2022-12-24T02:33:05.795Z,11.07
2022-12-24T02:38:19.825Z,9.57
2022-12-24T02:43:28.955Z,9.05
2022-12-24T02:48:31.892Z,7.83
2022-12-24T02:53:34.999Z,10.90
2022-12-24T02:59:09.662Z,5.20
2022-12-24T03:04:20.839Z,5.40
2022-12-24T03:09:39.691Z,6.78
2022-12-24T03:14:42.927Z,6.90
2022-12-24T03:19:46.237Z,6.75
2022-12-24T03:24:48.710Z,9.20
2022-12-24T03:29:51.144Z,7.83
2022-12-24T03:34:53.902Z,7.65
2022-12-24T03:39:56.461Z,9.20
2022-12-24T03:44:58.880Z,7.88
2022-12-24T03:50:01.348Z,10.57
2022-12-24T03:55:03.974Z,10.83
2022-12-24T04:00:08.206Z,12.95
2022-12-24T04:05:15.625Z,5.23
2022-12-24T04:10:18.099Z,5.95
2022-12-24T04:15:20.568Z,10.07
2022-12-24T04:20:22.993Z,9.77
2022-12-24T04:25:25.443Z,11.07
2022-12-24T04:30:27.888Z,10.97
2022-12-24T04:35:30.377Z,11.45
2022-12-24T04:40:32.848Z,12.25
2022-12-24T04:45:35.381Z,11.97
2022-12-24T04:50:37.792Z,16.73
2022-12-24T04:55:43.938Z,11.80
2022-12-24T05:00:47.165Z,8.13
2022-12-24T05:05:49.616Z,10.63
2022-12-24T05:10:59.095Z,8.57
2022-12-24T05:16:01.505Z,8.30
2022-12-24T05:21:08.291Z,4.77
2022-12-24T05:26:24.672Z,6.00
2022-12-24T05:31:28.562Z,7.93
2022-12-24T05:36:31.079Z,8.13
2022-12-24T05:41:33.624Z,6.00
2022-12-24T05:46:36.095Z,7.83
2022-12-24T05:51:40.450Z,9.43
2022-12-24T05:56:43.108Z,9.18
2022-12-24T06:01:48.132Z,9.33
2022-12-24T06:06:50.780Z,10.55
2022-12-24T06:11:53.299Z,5.80
2022-12-24T06:16:55.834Z,6.78
2022-12-24T06:21:58.253Z,9.65
2022-12-24T06:27:00.736Z,7.77
2022-12-24T06:32:03.210Z,8.90
2022-12-24T06:37:05.998Z,7.73
2022-12-24T06:42:08.477Z,6.88
2022-12-24T06:47:10.880Z,9.75
2022-12-24T06:52:13.416Z,10.03
2022-12-24T06:57:15.870Z,8.45
2022-12-24T07:02:18.437Z,7.83
2022-12-24T07:07:20.983Z,8.98
2022-12-24T07:12:23.425Z,7.93
2022-12-24T07:17:26.097Z,6.27
2022-12-24T07:22:28.687Z,8.40
2022-12-24T07:27:31.759Z,9.53
2022-12-24T07:32:34.584Z,9.38
2022-12-24T07:37:37.171Z,9.43
2022-12-24T07:42:39.565Z,8.30
2022-12-24T07:47:41.956Z,12.10
2022-12-24T07:52:44.364Z,12.47
2022-12-24T07:57:46.795Z,12.82
2022-12-24T08:02:49.463Z,14.45
2022-12-24T08:07:52.076Z,12.57
2022-12-24T08:12:54.461Z,11.50
2022-12-24T08:17:56.902Z,17.10
2022-12-24T08:22:59.310Z,16.50
2022-12-24T08:28:02.034Z,13.38
2022-12-24T08:33:04.633Z,18.97
2022-12-24T08:38:07.316Z,17.55
2022-12-24T08:43:09.862Z,11.00
2022-12-24T08:48:12.591Z,13.23
2022-12-24T08:53:15.066Z,13.57
2022-12-24T08:58:17.594Z,9.77
2022-12-24T09:03:27.102Z,14.48
2022-12-24T09:08:30.468Z,17.27
2022-12-24T09:13:32.860Z,21.70
2022-12-24T09:18:35.802Z,18.60
2022-12-24T09:23:42.103Z,21.23
2022-12-24T09:28:44.700Z,22.38
2022-12-24T09:33:49.059Z,25.37
2022-12-24T09:38:51.519Z,20.08
2022-12-24T09:44:01.421Z,16.52
2022-12-24T09:49:06.697Z,16.20
2022-12-24T09:54:18.710Z,21.88
2022-12-24T09:59:25.163Z,16.40
2022-12-24T10:04:31.272Z,14.90
2022-12-24T10:09:50.447Z,13.02
2022-12-24T10:15:04.375Z,12.73
2022-12-24T10:20:25.556Z,17.23
2022-12-24T10:26:17.058Z,32.57
2022-12-24T10:31:29.395Z,11.25
2022-12-24T10:36:32.622Z,27.25
2022-12-24T10:41:35.801Z,14.30
2022-12-24T10:46:40.009Z,15.80
2022-12-24T10:51:57.962Z,16.07
2022-12-24T10:57:04.578Z,14.65
2022-12-24T11:02:28.464Z,18.35
2022-12-24T11:07:32.331Z,15.87
2022-12-24T11:12:55.879Z,17.77
2022-12-24T11:18:15.257Z,16.47
2022-12-24T11:23:18.279Z,16.90
2022-12-24T11:28:27.298Z,18.00
2022-12-24T11:33:30.729Z,15.60
2022-12-24T11:38:35.175Z,20.38
2022-12-24T11:43:52.539Z,23.60
2022-12-24T11:49:18.273Z,22.58
2022-12-24T11:54:24.659Z,20.05
2022-12-24T11:59:39.841Z,21.33
2022-12-24T12:04:44.673Z,19.60
2022-12-24T12:10:10.468Z,24.57
2022-12-24T12:15:13.961Z,24.05
2022-12-24T12:20:23.438Z,22.90
2022-12-24T12:25:52.763Z,24.83
2022-12-24T12:31:18.294Z,22.45
2022-12-24T12:36:32.990Z,21.00
2022-12-24T12:41:49.799Z,22.95
2022-12-24T12:46:55.328Z,30.52
2022-12-24T12:52:36.404Z,22.83
2022-12-24T12:57:40.508Z,22.48
2022-12-24T13:03:07.571Z,25.97
2022-12-24T13:08:13.162Z,20.40
2022-12-24T13:13:50.808Z,22.02
2022-12-24T13:18:58.510Z,29.13
2022-12-24T13:24:21.458Z,33.33
2022-12-24T13:29:35.986Z,23.47
2022-12-24T13:34:39.207Z,25.27
2022-12-24T13:40:22.910Z,23.52
2022-12-24T13:45:31.582Z,23.17
2022-12-24T13:50:50.065Z,22.60
2022-12-24T13:55:58.099Z,25.37
2022-12-24T14:01:04.241Z,23.85
2022-12-24T14:06:09.303Z,31.00
2022-12-24T14:11:25.976Z,28.17
2022-12-24T14:16:32.480Z,22.23
2022-12-24T14:21:59.441Z,22.53
2022-12-24T14:27:12.636Z,31.67
2022-12-24T14:32:22.821Z,28.50
2022-12-24T14:37:27.878Z,43.73
2022-12-24T14:42:37.077Z,25.45
2022-12-24T14:47:58.290Z,22.93
2022-12-24T14:53:24.297Z,36.38
2022-12-24T14:58:40.268Z,26.65
2022-12-24T15:03:42.932Z,29.73
2022-12-24T15:08:48.743Z,27.33
2022-12-24T15:13:53.930Z,45.70
2022-12-24T15:18:59.247Z,43.13
2022-12-24T15:24:01.958Z,56.13
2022-12-24T15:29:26.388Z,39.57
2022-12-24T15:34:42.389Z,33.75
2022-12-24T15:39:45.915Z,35.53
2022-12-24T15:44:59.932Z,33.47
2022-12-24T15:50:02.362Z,34.78
2022-12-24T15:55:26.120Z,28.60
2022-12-24T16:00:32.423Z,32.53
2022-12-24T16:05:38.793Z,29.10
2022-12-24T16:10:47.242Z,27.55
2022-12-24T16:15:55.460Z,26.23
2022-12-24T16:20:59.227Z,34.13
2022-12-24T16:26:01.689Z,39.60
2022-12-24T16:31:04.348Z,32.70
2022-12-24T16:36:09.769Z,34.20
2022-12-24T16:41:12.558Z,30.65
2022-12-24T16:46:15.055Z,23.10
2022-12-24T16:51:17.531Z,26.90
2022-12-24T16:56:22.123Z,15.57
2022-12-24T17:01:24.750Z,29.27
2022-12-24T17:06:27.304Z,22.45
2022-12-24T17:11:31.737Z,21.63
2022-12-24T17:16:34.445Z,26.98
2022-12-24T17:21:37.368Z,27.70
2022-12-24T17:26:45.236Z,17.27
2022-12-24T17:31:47.775Z,32.47
2022-12-24T17:36:50.369Z,25.63
2022-12-24T17:41:54.971Z,45.22
2022-12-24T17:46:57.514Z,83.07
2022-12-24T17:52:00.109Z,82.85
2022-12-24T17:57:02.599Z,113.55
2022-12-24T18:02:05.247Z,88.63
2022-12-24T18:07:10.806Z,91.13
2022-12-24T18:12:14.185Z,68.70
2022-12-24T18:17:16.684Z,62.90
2022-12-24T18:22:19.227Z,54.85
2022-12-24T18:27:21.695Z,49.37
2022-12-24T18:32:24.197Z,53.08
2022-12-24T18:37:26.694Z,64.80
2022-12-24T18:42:40.800Z,60.47
2022-12-24T18:47:47.492Z,57.42
2022-12-24T18:52:57.380Z,58.30
2022-12-24T18:57:59.961Z,66.82
2022-12-24T19:03:02.480Z,63.63
2022-12-24T19:08:22.282Z,73.13
2022-12-24T19:13:27.936Z,56.97
2022-12-24T19:18:30.436Z,63.90
2022-12-24T19:23:32.971Z,65.20
2022-12-24T19:28:35.573Z,55.80
2022-12-24T19:33:43.691Z,60.35
2022-12-24T19:38:49.306Z,56.25
2022-12-24T19:43:55.591Z,59.03
2022-12-24T19:49:00.515Z,56.72
2022-12-24T19:54:03.251Z,62.60
2022-12-24T19:59:06.708Z,59.20
2022-12-24T20:04:10.512Z,78.40
2022-12-24T20:09:15.546Z,71.20
2022-12-24T20:14:18.049Z,67.15
2022-12-24T20:19:20.587Z,71.50
2022-12-24T20:24:23.114Z,68.90
2022-12-24T20:29:25.748Z,71.43
2022-12-24T20:34:28.277Z,81.97
2022-12-24T20:39:35.934Z,66.05
2022-12-24T20:44:38.531Z,117.17
2022-12-24T20:49:42.135Z,70.30
2022-12-24T20:54:46.474Z,77.32
2022-12-24T20:59:49.016Z,56.70
2022-12-24T21:04:55.308Z,121.75
2022-12-24T21:10:00.629Z,94.20
2022-12-24T21:15:08.293Z,62.03
2022-12-24T21:20:11.451Z,66.03
2022-12-24T21:25:14.000Z,56.00
2022-12-24T21:30:16.688Z,61.35
2022-12-24T21:35:19.371Z,60.17
2022-12-24T21:40:21.874Z,65.70
2022-12-24T21:45:24.364Z,64.45
2022-12-24T21:50:45.370Z,49.07
2022-12-24T21:55:47.912Z,69.32
2022-12-24T22:00:50.418Z,80.17
2022-12-24T22:05:52.907Z,68.03
2022-12-24T22:11:30.287Z,69.15
2022-12-24T22:16:32.767Z,53.27
2022-12-24T22:21:35.373Z,64.75
2022-12-24T22:26:37.825Z,59.57
2022-12-24T22:31:43.290Z,54.63
2022-12-24T22:36:45.771Z,55.53
2022-12-24T22:41:48.255Z,67.97
2022-12-24T22:46:51.148Z,83.15
2022-12-24T22:51:56.305Z,89.63
2022-12-24T22:56:58.955Z,84.00
2022-12-24T23:02:03.417Z,70.03
2022-12-24T23:07:07.835Z,62.37
2022-12-24T23:12:10.325Z,67.55
2022-12-24T23:17:13.133Z,56.80
2022-12-24T23:22:15.649Z,52.63
2022-12-24T23:27:18.088Z,49.72
2022-12-24T23:32:20.567Z,43.43
2022-12-24T23:37:23.109Z,46.22
2022-12-24T23:42:25.601Z,57.90
2022-12-24T23:47:28.167Z,44.28
2022-12-24T23:52:30.618Z,54.22
2022-12-24T23:57:33.149Z,49.87
